sensor_id;sensor_type;location;lat;lon;timestamp;P1;durP1;ratioP1;P2;durP2;ratioP2
43519;SDS011;46848;51.980;5.918;2023-07-24T00:00:48;1.98;;;1.00;;
43519;SDS011;46848;51.980;5.918;2023-07-24T00:03:13;4.03;;;1.02;;
43519;SDS011;46848;51.980;5.918;2023-07-24T00:05:39;2.05;;;0.93;;
43519;SDS011;46848;51.980;5.918;2023-07-24T00:08:04;1.65;;;0.90;;
43519;SDS011;46848;51.980;5.918;2023-07-24T00:10:31;2.00;;;1.10;;
43519;SDS011;46848;51.980;5.918;2023-07-24T00:12:57;2.60;;;1.17;;
43519;SDS011;46848;51.980;5.918;2023-07-24T00:15:23;2.33;;;1.00;;
43519;SDS011;46848;51.980;5.918;2023-07-24T00:17:48;2.33;;;1.20;;
43519;SDS011;46848;51.980;5.918;2023-07-24T00:20:14;1.83;;;1.00;;
43519;SDS011;46848;51.980;5.918;2023-07-24T00:22:39;1.80;;;1.15;;
43519;SDS011;46848;51.980;5.918;2023-07-24T00:25:05;2.58;;;1.55;;
43519;SDS011;46848;51.980;5.918;2023-07-24T00:27:31;2.53;;;1.67;;
43519;SDS011;46848;51.980;5.918;2023-07-24T00:29:57;2.40;;;1.13;;
43519;SDS011;46848;51.980;5.918;2023-07-24T00:32:22;1.92;;;1.23;;
43519;SDS011;46848;51.980;5.918;2023-07-24T00:34:48;2.22;;;1.27;;
43519;SDS011;46848;51.980;5.918;2023-07-24T00:37:13;2.50;;;1.20;;
43519;SDS011;46848;51.980;5.918;2023-07-24T00:39:39;2.88;;;1.25;;
43519;SDS011;46848;51.980;5.918;2023-07-24T00:42:04;3.53;;;1.30;;
43519;SDS011;46848;51.980;5.918;2023-07-24T00:44:30;2.47;;;1.50;;
43519;SDS011;46848;51.980;5.918;2023-07-24T00:46:56;2.90;;;1.35;;
43519;SDS011;46848;51.980;5.918;2023-07-24T00:49:22;1.70;;;0.98;;
43519;SDS011;46848;51.980;5.918;2023-07-24T00:51:48;1.83;;;1.15;;
43519;SDS011;46848;51.980;5.918;2023-07-24T00:54:14;1.90;;;1.20;;
43519;SDS011;46848;51.980;5.918;2023-07-24T00:56:41;2.50;;;1.35;;
43519;SDS011;46848;51.980;5.918;2023-07-24T00:59:08;2.05;;;1.25;;
43519;SDS011;46848;51.980;5.918;2023-07-24T01:01:34;1.98;;;1.00;;
43519;SDS011;46848;51.980;5.918;2023-07-24T01:04:01;2.25;;;1.35;;
43519;SDS011;46848;51.980;5.918;2023-07-24T01:06:30;2.83;;;1.27;;
43519;SDS011;46848;51.980;5.918;2023-07-24T01:08:56;2.72;;;1.48;;
43519;SDS011;46848;51.980;5.918;2023-07-24T01:11:27;1.60;;;1.00;;
43519;SDS011;46848;51.980;5.918;2023-07-24T01:13:58;2.55;;;1.30;;
43519;SDS011;46848;51.980;5.918;2023-07-24T01:16:49;2.67;;;1.40;;
43519;SDS011;46848;51.980;5.918;2023-07-24T01:19:20;2.03;;;1.17;;
43519;SDS011;46848;51.980;5.918;2023-07-24T01:22:08;2.30;;;1.50;;
43519;SDS011;46848;51.980;5.918;2023-07-24T01:27:25;2.35;;;1.17;;
43519;SDS011;46848;51.980;5.918;2023-07-24T01:29:50;2.38;;;1.50;;
43519;SDS011;46848;51.980;5.918;2023-07-24T01:32:16;4.60;;;2.05;;
43519;SDS011;46848;51.980;5.918;2023-07-24T01:34:42;2.78;;;1.80;;
43519;SDS011;46848;51.980;5.918;2023-07-24T01:37:09;2.80;;;1.60;;
43519;SDS011;46848;51.980;5.918;2023-07-24T01:39:37;2.20;;;1.40;;
43519;SDS011;46848;51.980;5.918;2023-07-24T01:42:04;2.22;;;1.50;;
43519;SDS011;46848;51.980;5.918;2023-07-24T01:44:30;2.28;;;1.70;;
43519;SDS011;46848;51.980;5.918;2023-07-24T01:46:56;5.45;;;1.45;;
43519;SDS011;46848;51.980;5.918;2023-07-24T01:49:21;2.53;;;1.80;;
43519;SDS011;46848;51.980;5.918;2023-07-24T01:51:47;2.75;;;2.00;;
43519;SDS011;46848;51.980;5.918;2023-07-24T01:54:12;3.10;;;1.95;;
43519;SDS011;46848;51.980;5.918;2023-07-24T01:56:38;3.60;;;2.13;;
43519;SDS011;46848;51.980;5.918;2023-07-24T01:59:04;4.90;;;1.88;;
43519;SDS011;46848;51.980;5.918;2023-07-24T02:01:30;2.58;;;1.60;;
43519;SDS011;46848;51.980;5.918;2023-07-24T02:03:56;2.67;;;1.80;;
43519;SDS011;46848;51.980;5.918;2023-07-24T02:06:22;4.57;;;1.95;;
43519;SDS011;46848;51.980;5.918;2023-07-24T02:08:47;3.65;;;2.00;;
43519;SDS011;46848;51.980;5.918;2023-07-24T02:11:17;5.10;;;3.70;;
43519;SDS011;46848;51.980;5.918;2023-07-24T02:13:46;5.97;;;2.70;;
43519;SDS011;46848;51.980;5.918;2023-07-24T02:16:14;5.18;;;2.15;;
43519;SDS011;46848;51.980;5.918;2023-07-24T02:18:41;2.83;;;1.90;;
43519;SDS011;46848;51.980;5.918;2023-07-24T02:21:07;2.80;;;1.88;;
43519;SDS011;46848;51.980;5.918;2023-07-24T02:23:33;3.15;;;1.98;;
43519;SDS011;46848;51.980;5.918;2023-07-24T02:25:59;2.65;;;1.80;;
43519;SDS011;46848;51.980;5.918;2023-07-24T02:28:25;2.58;;;1.80;;
43519;SDS011;46848;51.980;5.918;2023-07-24T02:30:50;5.13;;;2.00;;
43519;SDS011;46848;51.980;5.918;2023-07-24T02:33:17;4.88;;;2.47;;
43519;SDS011;46848;51.980;5.918;2023-07-24T02:35:42;4.43;;;2.20;;
43519;SDS011;46848;51.980;5.918;2023-07-24T02:38:08;3.72;;;2.20;;
43519;SDS011;46848;51.980;5.918;2023-07-24T02:40:34;3.55;;;2.35;;
43519;SDS011;46848;51.980;5.918;2023-07-24T02:43:01;4.07;;;2.20;;
43519;SDS011;46848;51.980;5.918;2023-07-24T02:45:26;3.63;;;2.00;;
43519;SDS011;46848;51.980;5.918;2023-07-24T02:47:52;4.50;;;2.30;;
43519;SDS011;46848;51.980;5.918;2023-07-24T02:50:17;4.88;;;2.42;;
43519;SDS011;46848;51.980;5.918;2023-07-24T02:52:43;4.63;;;2.13;;
43519;SDS011;46848;51.980;5.918;2023-07-24T02:55:08;4.25;;;1.90;;
43519;SDS011;46848;51.980;5.918;2023-07-24T02:57:34;4.78;;;2.28;;
43519;SDS011;46848;51.980;5.918;2023-07-24T02:59:59;3.63;;;2.30;;
43519;SDS011;46848;51.980;5.918;2023-07-24T03:02:25;4.20;;;2.60;;
43519;SDS011;46848;51.980;5.918;2023-07-24T03:04:51;5.78;;;2.70;;
43519;SDS011;46848;51.980;5.918;2023-07-24T03:07:16;4.90;;;2.58;;
43519;SDS011;46848;51.980;5.918;2023-07-24T03:09:42;4.47;;;2.30;;
43519;SDS011;46848;51.980;5.918;2023-07-24T03:12:08;3.42;;;2.38;;
43519;SDS011;46848;51.980;5.918;2023-07-24T03:14:33;4.60;;;2.58;;
43519;SDS011;46848;51.980;5.918;2023-07-24T03:16:59;4.32;;;2.60;;
43519;SDS011;46848;51.980;5.918;2023-07-24T03:19:24;4.57;;;2.05;;
43519;SDS011;46848;51.980;5.918;2023-07-24T03:21:50;4.28;;;2.38;;
43519;SDS011;46848;51.980;5.918;2023-07-24T03:24:16;5.70;;;2.63;;
43519;SDS011;46848;51.980;5.918;2023-07-24T03:26:42;5.35;;;2.85;;
43519;SDS011;46848;51.980;5.918;2023-07-24T03:29:07;3.63;;;2.55;;
43519;SDS011;46848;51.980;5.918;2023-07-24T03:31:33;3.47;;;2.60;;
43519;SDS011;46848;51.980;5.918;2023-07-24T03:33:58;4.45;;;2.42;;
43519;SDS011;46848;51.980;5.918;2023-07-24T03:36:24;3.83;;;2.45;;
43519;SDS011;46848;51.980;5.918;2023-07-24T03:38:50;3.60;;;2.67;;
43519;SDS011;46848;51.980;5.918;2023-07-24T03:41:15;4.90;;;2.95;;
43519;SDS011;46848;51.980;5.918;2023-07-24T03:43:41;5.35;;;2.88;;
43519;SDS011;46848;51.980;5.918;2023-07-24T03:46:06;4.25;;;3.00;;
43519;SDS011;46848;51.980;5.918;2023-07-24T03:48:32;3.65;;;3.00;;
43519;SDS011;46848;51.980;5.918;2023-07-24T03:50:58;4.20;;;2.70;;
43519;SDS011;46848;51.980;5.918;2023-07-24T03:53:27;3.53;;;2.80;;
43519;SDS011;46848;51.980;5.918;2023-07-24T03:55:53;4.57;;;3.38;;
43519;SDS011;46848;51.980;5.918;2023-07-24T03:58:19;6.82;;;3.05;;
43519;SDS011;46848;51.980;5.918;2023-07-24T04:00:45;4.05;;;3.25;;
43519;SDS011;46848;51.980;5.918;2023-07-24T04:03:11;5.50;;;3.40;;
43519;SDS011;46848;51.980;5.918;2023-07-24T04:05:37;5.00;;;3.40;;
43519;SDS011;46848;51.980;5.918;2023-07-24T04:08:03;4.95;;;2.92;;
43519;SDS011;46848;51.980;5.918;2023-07-24T04:10:28;4.57;;;2.85;;
43519;SDS011;46848;51.980;5.918;2023-07-24T04:12:55;5.45;;;3.40;;
43519;SDS011;46848;51.980;5.918;2023-07-24T04:15:22;4.82;;;2.85;;
43519;SDS011;46848;51.980;5.918;2023-07-24T04:17:48;3.70;;;2.58;;
43519;SDS011;46848;51.980;5.918;2023-07-24T04:20:13;3.78;;;2.83;;
43519;SDS011;46848;51.980;5.918;2023-07-24T04:22:39;4.25;;;2.47;;
43519;SDS011;46848;51.980;5.918;2023-07-24T04:25:05;4.28;;;2.60;;
43519;SDS011;46848;51.980;5.918;2023-07-24T04:27:30;4.75;;;2.90;;
43519;SDS011;46848;51.980;5.918;2023-07-24T04:29:56;5.32;;;2.53;;
43519;SDS011;46848;51.980;5.918;2023-07-24T04:32:22;3.88;;;2.60;;
43519;SDS011;46848;51.980;5.918;2023-07-24T04:34:47;3.83;;;2.75;;
43519;SDS011;46848;51.980;5.918;2023-07-24T04:37:13;3.65;;;2.60;;
43519;SDS011;46848;51.980;5.918;2023-07-24T04:39:39;3.33;;;2.35;;
43519;SDS011;46848;51.980;5.918;2023-07-24T04:42:05;3.58;;;2.63;;
43519;SDS011;46848;51.980;5.918;2023-07-24T04:44:30;4.75;;;2.80;;
43519;SDS011;46848;51.980;5.918;2023-07-24T04:46:57;4.10;;;2.20;;
43519;SDS011;46848;51.980;5.918;2023-07-24T04:49:23;3.95;;;2.65;;
43519;SDS011;46848;51.980;5.918;2023-07-24T04:51:49;4.15;;;2.67;;
43519;SDS011;46848;51.980;5.918;2023-07-24T04:54:16;3.88;;;2.97;;
43519;SDS011;46848;51.980;5.918;2023-07-24T04:56:42;4.00;;;2.63;;
43519;SDS011;46848;51.980;5.918;2023-07-24T04:59:08;3.40;;;2.47;;
43519;SDS011;46848;51.980;5.918;2023-07-24T05:01:33;6.00;;;3.00;;
43519;SDS011;46848;51.980;5.918;2023-07-24T05:03:59;3.70;;;2.47;;
43519;SDS011;46848;51.980;5.918;2023-07-24T05:06:24;4.82;;;3.00;;
43519;SDS011;46848;51.980;5.918;2023-07-24T05:08:52;4.70;;;3.10;;
43519;SDS011;46848;51.980;5.918;2023-07-24T05:11:18;5.35;;;3.20;;
43519;SDS011;46848;51.980;5.918;2023-07-24T05:13:44;4.25;;;3.00;;
43519;SDS011;46848;51.980;5.918;2023-07-24T05:16:09;3.67;;;3.05;;
43519;SDS011;46848;51.980;5.918;2023-07-24T05:18:35;4.10;;;3.17;;
43519;SDS011;46848;51.980;5.918;2023-07-24T05:21:00;5.05;;;3.58;;
43519;SDS011;46848;51.980;5.918;2023-07-24T05:23:26;5.35;;;3.22;;
43519;SDS011;46848;51.980;5.918;2023-07-24T05:26:02;5.63;;;3.60;;
43519;SDS011;46848;51.980;5.918;2023-07-24T05:28:29;4.30;;;3.20;;
43519;SDS011;46848;51.980;5.918;2023-07-24T05:30:55;5.15;;;3.95;;
43519;SDS011;46848;51.980;5.918;2023-07-24T05:33:24;5.53;;;3.63;;
43519;SDS011;46848;51.980;5.918;2023-07-24T05:35:50;5.57;;;3.80;;
43519;SDS011;46848;51.980;5.918;2023-07-24T05:38:15;6.65;;;3.72;;
43519;SDS011;46848;51.980;5.918;2023-07-24T05:40:41;5.00;;;3.90;;
43519;SDS011;46848;51.980;5.918;2023-07-24T05:43:06;5.53;;;3.85;;
43519;SDS011;46848;51.980;5.918;2023-07-24T05:45:32;7.10;;;4.05;;
43519;SDS011;46848;51.980;5.918;2023-07-24T05:47:58;7.15;;;4.07;;
43519;SDS011;46848;51.980;5.918;2023-07-24T05:50:23;4.68;;;3.20;;
43519;SDS011;46848;51.980;5.918;2023-07-24T05:52:49;6.30;;;3.90;;
43519;SDS011;46848;51.980;5.918;2023-07-24T05:55:14;4.90;;;3.72;;
43519;SDS011;46848;51.980;5.918;2023-07-24T05:57:40;5.35;;;3.78;;
43519;SDS011;46848;51.980;5.918;2023-07-24T06:00:06;4.78;;;3.38;;
43519;SDS011;46848;51.980;5.918;2023-07-24T06:02:32;4.95;;;4.10;;
43519;SDS011;46848;51.980;5.918;2023-07-24T06:04:57;5.65;;;3.63;;
43519;SDS011;46848;51.980;5.918;2023-07-24T06:07:23;4.32;;;3.58;;
43519;SDS011;46848;51.980;5.918;2023-07-24T06:09:49;5.85;;;4.50;;
43519;SDS011;46848;51.980;5.918;2023-07-24T06:12:15;5.82;;;3.95;;
43519;SDS011;46848;51.980;5.918;2023-07-24T06:14:40;5.75;;;4.45;;
43519;SDS011;46848;51.980;5.918;2023-07-24T06:17:06;6.25;;;4.30;;
43519;SDS011;46848;51.980;5.918;2023-07-24T06:19:32;5.53;;;3.92;;
43519;SDS011;46848;51.980;5.918;2023-07-24T06:21:57;6.45;;;4.53;;
43519;SDS011;46848;51.980;5.918;2023-07-24T06:24:23;7.63;;;4.55;;
43519;SDS011;46848;51.980;5.918;2023-07-24T06:26:49;8.05;;;4.63;;
43519;SDS011;46848;51.980;5.918;2023-07-24T06:29:15;7.13;;;4.85;;
43519;SDS011;46848;51.980;5.918;2023-07-24T06:31:41;5.78;;;4.18;;
43519;SDS011;46848;51.980;5.918;2023-07-24T06:34:06;6.00;;;4.40;;
43519;SDS011;46848;51.980;5.918;2023-07-24T06:36:32;6.88;;;4.93;;
43519;SDS011;46848;51.980;5.918;2023-07-24T06:38:58;7.22;;;5.43;;
43519;SDS011;46848;51.980;5.918;2023-07-24T06:41:23;5.60;;;4.18;;
43519;SDS011;46848;51.980;5.918;2023-07-24T06:43:50;7.07;;;5.20;;
43519;SDS011;46848;51.980;5.918;2023-07-24T06:46:16;8.57;;;5.03;;
43519;SDS011;46848;51.980;5.918;2023-07-24T06:48:41;5.80;;;4.70;;
43519;SDS011;46848;51.980;5.918;2023-07-24T06:51:07;5.95;;;4.43;;
43519;SDS011;46848;51.980;5.918;2023-07-24T06:53:32;8.02;;;4.63;;
43519;SDS011;46848;51.980;5.918;2023-07-24T06:55:58;6.22;;;4.75;;
43519;SDS011;46848;51.980;5.918;2023-07-24T06:58:23;5.85;;;4.22;;
43519;SDS011;46848;51.980;5.918;2023-07-24T07:00:49;7.82;;;4.82;;
43519;SDS011;46848;51.980;5.918;2023-07-24T07:03:14;7.88;;;5.10;;
43519;SDS011;46848;51.980;5.918;2023-07-24T07:05:40;7.10;;;5.03;;
43519;SDS011;46848;51.980;5.918;2023-07-24T07:08:05;7.82;;;5.45;;
43519;SDS011;46848;51.980;5.918;2023-07-24T07:10:32;8.13;;;5.05;;
43519;SDS011;46848;51.980;5.918;2023-07-24T07:12:58;9.02;;;5.90;;
43519;SDS011;46848;51.980;5.918;2023-07-24T07:15:23;7.68;;;5.38;;
43519;SDS011;46848;51.980;5.918;2023-07-24T07:17:49;6.35;;;5.07;;
43519;SDS011;46848;51.980;5.918;2023-07-24T07:20:15;7.75;;;5.07;;
43519;SDS011;46848;51.980;5.918;2023-07-24T07:22:40;6.75;;;5.60;;
43519;SDS011;46848;51.980;5.918;2023-07-24T07:25:06;6.97;;;5.22;;
43519;SDS011;46848;51.980;5.918;2023-07-24T07:27:32;8.07;;;5.43;;
43519;SDS011;46848;51.980;5.918;2023-07-24T07:29:57;9.02;;;5.95;;
43519;SDS011;46848;51.980;5.918;2023-07-24T07:32:23;9.40;;;6.18;;
43519;SDS011;46848;51.980;5.918;2023-07-24T07:34:49;8.93;;;5.65;;
43519;SDS011;46848;51.980;5.918;2023-07-24T07:37:15;6.85;;;5.93;;
43519;SDS011;46848;51.980;5.918;2023-07-24T07:39:40;8.68;;;5.65;;
43519;SDS011;46848;51.980;5.918;2023-07-24T07:42:06;9.73;;;5.90;;
43519;SDS011;46848;51.980;5.918;2023-07-24T07:44:32;9.63;;;6.32;;
43519;SDS011;46848;51.980;5.918;2023-07-24T07:46:57;8.43;;;5.90;;
43519;SDS011;46848;51.980;5.918;2023-07-24T07:49:23;8.15;;;6.00;;
43519;SDS011;46848;51.980;5.918;2023-07-24T07:51:48;12.40;;;6.28;;
43519;SDS011;46848;51.980;5.918;2023-07-24T07:54:14;11.05;;;6.40;;
43519;SDS011;46848;51.980;5.918;2023-07-24T07:56:40;8.18;;;6.43;;
43519;SDS011;46848;51.980;5.918;2023-07-24T07:59:07;10.98;;;6.28;;
43519;SDS011;46848;51.980;5.918;2023-07-24T08:01:32;7.80;;;5.95;;
43519;SDS011;46848;51.980;5.918;2023-07-24T08:03:58;9.50;;;6.63;;
43519;SDS011;46848;51.980;5.918;2023-07-24T08:06:23;7.50;;;6.43;;
43519;SDS011;46848;51.980;5.918;2023-07-24T08:08:49;8.05;;;6.22;;
43519;SDS011;46848;51.980;5.918;2023-07-24T08:11:15;10.32;;;7.28;;
43519;SDS011;46848;51.980;5.918;2023-07-24T08:13:41;9.45;;;7.15;;
43519;SDS011;46848;51.980;5.918;2023-07-24T08:16:16;10.02;;;7.00;;
43519;SDS011;46848;51.980;5.918;2023-07-24T08:18:46;8.25;;;6.78;;
43519;SDS011;46848;51.980;5.918;2023-07-24T08:21:13;10.50;;;6.57;;
43519;SDS011;46848;51.980;5.918;2023-07-24T08:23:39;8.45;;;6.88;;
43519;SDS011;46848;51.980;5.918;2023-07-24T08:26:05;9.90;;;7.55;;
43519;SDS011;46848;51.980;5.918;2023-07-24T08:28:32;9.18;;;6.57;;
43519;SDS011;46848;51.980;5.918;2023-07-24T08:30:59;11.77;;;7.65;;
43519;SDS011;46848;51.980;5.918;2023-07-24T08:33:27;9.95;;;7.38;;
43519;SDS011;46848;51.980;5.918;2023-07-24T08:36:05;8.75;;;6.20;;
43519;SDS011;46848;51.980;5.918;2023-07-24T08:38:32;11.23;;;6.78;;
43519;SDS011;46848;51.980;5.918;2023-07-24T08:43:30;9.98;;;6.80;;
43519;SDS011;46848;51.980;5.918;2023-07-24T08:45:57;10.77;;;7.03;;
43519;SDS011;46848;51.980;5.918;2023-07-24T08:48:25;8.50;;;5.93;;
43519;SDS011;46848;51.980;5.918;2023-07-24T08:51:01;8.77;;;5.78;;
43519;SDS011;46848;51.980;5.918;2023-07-24T08:53:28;8.07;;;5.97;;
43519;SDS011;46848;51.980;5.918;2023-07-24T08:55:55;6.50;;;5.07;;
43519;SDS011;46848;51.980;5.918;2023-07-24T08:58:22;9.30;;;5.78;;
43519;SDS011;46848;51.980;5.918;2023-07-24T09:00:47;8.43;;;4.95;;
43519;SDS011;46848;51.980;5.918;2023-07-24T09:03:13;6.57;;;4.78;;
43519;SDS011;46848;51.980;5.918;2023-07-24T09:05:39;7.05;;;4.72;;
43519;SDS011;46848;51.980;5.918;2023-07-24T09:08:04;6.45;;;4.82;;
43519;SDS011;46848;51.980;5.918;2023-07-24T09:10:30;8.55;;;4.93;;
43519;SDS011;46848;51.980;5.918;2023-07-24T09:12:55;6.30;;;4.65;;
43519;SDS011;46848;51.980;5.918;2023-07-24T09:15:21;7.38;;;5.60;;
43519;SDS011;46848;51.980;5.918;2023-07-24T09:17:51;8.93;;;5.70;;
43519;SDS011;46848;51.980;5.918;2023-07-24T09:20:20;8.88;;;6.07;;
43519;SDS011;46848;51.980;5.918;2023-07-24T09:22:49;8.65;;;6.07;;
43519;SDS011;46848;51.980;5.918;2023-07-24T09:25:16;6.88;;;5.15;;
43519;SDS011;46848;51.980;5.918;2023-07-24T09:27:41;8.80;;;5.60;;
43519;SDS011;46848;51.980;5.918;2023-07-24T09:30:14;7.38;;;5.13;;
43519;SDS011;46848;51.980;5.918;2023-07-24T09:32:40;6.95;;;5.15;;
43519;SDS011;46848;51.980;5.918;2023-07-24T09:35:18;6.53;;;4.55;;
43519;SDS011;46848;51.980;5.918;2023-07-24T09:37:44;6.75;;;5.50;;
43519;SDS011;46848;51.980;5.918;2023-07-24T09:40:11;6.78;;;4.90;;
43519;SDS011;46848;51.980;5.918;2023-07-24T09:42:39;7.07;;;4.75;;
43519;SDS011;46848;51.980;5.918;2023-07-24T09:45:05;6.25;;;4.43;;
43519;SDS011;46848;51.980;5.918;2023-07-24T09:47:33;5.70;;;4.00;;
43519;SDS011;46848;51.980;5.918;2023-07-24T09:50:04;5.47;;;4.10;;
43519;SDS011;46848;51.980;5.918;2023-07-24T09:52:30;6.85;;;4.72;;
43519;SDS011;46848;51.980;5.918;2023-07-24T09:57:30;6.63;;;4.22;;
43519;SDS011;46848;51.980;5.918;2023-07-24T09:59:57;9.52;;;5.03;;
43519;SDS011;46848;51.980;5.918;2023-07-24T10:02:23;6.50;;;3.95;;
43519;SDS011;46848;51.980;5.918;2023-07-24T10:04:49;5.10;;;4.00;;
43519;SDS011;46848;51.980;5.918;2023-07-24T10:07:16;5.93;;;4.18;;
43519;SDS011;46848;51.980;5.918;2023-07-24T10:09:46;7.37;;;3.80;;
43519;SDS011;46848;51.980;5.918;2023-07-24T10:12:13;5.72;;;3.58;;
43519;SDS011;46848;51.980;5.918;2023-07-24T10:14:40;7.25;;;4.53;;
43519;SDS011;46848;51.980;5.918;2023-07-24T10:17:06;6.95;;;4.55;;
43519;SDS011;46848;51.980;5.918;2023-07-24T10:19:41;6.68;;;4.60;;
43519;SDS011;46848;51.980;5.918;2023-07-24T10:22:16;8.98;;;4.78;;
43519;SDS011;46848;51.980;5.918;2023-07-24T10:24:45;6.38;;;4.18;;
43519;SDS011;46848;51.980;5.918;2023-07-24T10:27:11;5.57;;;3.58;;
43519;SDS011;46848;51.980;5.918;2023-07-24T10:29:37;5.60;;;4.38;;
43519;SDS011;46848;51.980;5.918;2023-07-24T10:32:04;5.07;;;3.90;;
43519;SDS011;46848;51.980;5.918;2023-07-24T10:34:41;8.20;;;4.72;;
43519;SDS011;46848;51.980;5.918;2023-07-24T10:37:07;8.27;;;4.35;;
43519;SDS011;46848;51.980;5.918;2023-07-24T10:39:39;5.32;;;3.80;;
43519;SDS011;46848;51.980;5.918;2023-07-24T10:42:09;7.15;;;4.97;;
43519;SDS011;46848;51.980;5.918;2023-07-24T10:44:35;7.15;;;5.07;;
43519;SDS011;46848;51.980;5.918;2023-07-24T10:47:02;6.65;;;4.65;;
43519;SDS011;46848;51.980;5.918;2023-07-24T10:49:28;7.55;;;5.10;;
43519;SDS011;46848;51.980;5.918;2023-07-24T10:51:57;7.88;;;4.40;;
43519;SDS011;46848;51.980;5.918;2023-07-24T10:54:23;7.72;;;4.85;;
43519;SDS011;46848;51.980;5.918;2023-07-24T10:56:49;8.40;;;5.10;;
43519;SDS011;46848;51.980;5.918;2023-07-24T10:59:15;6.57;;;4.53;;
43519;SDS011;46848;51.980;5.918;2023-07-24T11:01:40;5.95;;;4.28;;
43519;SDS011;46848;51.980;5.918;2023-07-24T11:04:07;7.85;;;4.95;;
43519;SDS011;46848;51.980;5.918;2023-07-24T11:06:33;8.93;;;4.97;;
43519;SDS011;46848;51.980;5.918;2023-07-24T11:08:59;6.43;;;4.60;;
43519;SDS011;46848;51.980;5.918;2023-07-24T11:11:32;7.38;;;5.20;;
43519;SDS011;46848;51.980;5.918;2023-07-24T11:13:59;7.50;;;4.80;;
43519;SDS011;46848;51.980;5.918;2023-07-24T11:16:26;7.20;;;4.32;;
43519;SDS011;46848;51.980;5.918;2023-07-24T11:18:52;8.48;;;5.25;;
43519;SDS011;46848;51.980;5.918;2023-07-24T11:21:18;6.03;;;4.60;;
43519;SDS011;46848;51.980;5.918;2023-07-24T11:23:54;6.95;;;4.07;;
43519;SDS011;46848;51.980;5.918;2023-07-24T11:26:24;7.68;;;4.50;;
43519;SDS011;46848;51.980;5.918;2023-07-24T11:28:51;8.55;;;5.25;;
43519;SDS011;46848;51.980;5.918;2023-07-24T11:31:17;5.93;;;4.10;;
43519;SDS011;46848;51.980;5.918;2023-07-24T11:33:46;7.55;;;4.50;;
43519;SDS011;46848;51.980;5.918;2023-07-24T11:36:16;6.32;;;4.20;;
43519;SDS011;46848;51.980;5.918;2023-07-24T11:38:44;7.63;;;4.97;;
43519;SDS011;46848;51.980;5.918;2023-07-24T11:41:10;7.00;;;4.80;;
43519;SDS011;46848;51.980;5.918;2023-07-24T11:43:44;6.22;;;4.65;;
43519;SDS011;46848;51.980;5.918;2023-07-24T11:46:12;7.53;;;4.75;;
43519;SDS011;46848;51.980;5.918;2023-07-24T11:48:50;6.50;;;4.43;;
43519;SDS011;46848;51.980;5.918;2023-07-24T11:51:18;9.13;;;4.95;;
43519;SDS011;46848;51.980;5.918;2023-07-24T11:53:44;6.18;;;4.30;;
43519;SDS011;46848;51.980;5.918;2023-07-24T11:56:14;5.70;;;4.22;;
43519;SDS011;46848;51.980;5.918;2023-07-24T11:58:41;7.90;;;5.10;;
43519;SDS011;46848;51.980;5.918;2023-07-24T12:01:06;6.32;;;4.78;;
43519;SDS011;46848;51.980;5.918;2023-07-24T12:03:32;6.97;;;4.93;;
43519;SDS011;46848;51.980;5.918;2023-07-24T12:05:57;6.15;;;4.22;;
43519;SDS011;46848;51.980;5.918;2023-07-24T12:08:33;5.45;;;4.25;;
43519;SDS011;46848;51.980;5.918;2023-07-24T12:11:00;7.40;;;4.85;;
43519;SDS011;46848;51.980;5.918;2023-07-24T12:13:27;6.88;;;4.57;;
43519;SDS011;46848;51.980;5.918;2023-07-24T12:15:53;8.27;;;4.47;;
43519;SDS011;46848;51.980;5.918;2023-07-24T12:18:19;5.75;;;4.38;;
43519;SDS011;46848;51.980;5.918;2023-07-24T12:20:45;5.85;;;3.63;;
43519;SDS011;46848;51.980;5.918;2023-07-24T12:23:10;6.18;;;3.30;;
43519;SDS011;46848;51.980;5.918;2023-07-24T12:25:36;5.70;;;3.03;;
43519;SDS011;46848;51.980;5.918;2023-07-24T12:28:01;5.90;;;3.30;;
43519;SDS011;46848;51.980;5.918;2023-07-24T12:30:27;5.85;;;3.75;;
43519;SDS011;46848;51.980;5.918;2023-07-24T12:32:53;6.13;;;3.55;;
43519;SDS011;46848;51.980;5.918;2023-07-24T12:35:18;5.57;;;3.10;;
43519;SDS011;46848;51.980;5.918;2023-07-24T12:37:44;5.88;;;3.08;;
43519;SDS011;46848;51.980;5.918;2023-07-24T12:40:10;7.60;;;3.88;;
43519;SDS011;46848;51.980;5.918;2023-07-24T12:42:36;6.95;;;3.47;;
43519;SDS011;46848;51.980;5.918;2023-07-24T12:45:02;7.53;;;3.92;;
43519;SDS011;46848;51.980;5.918;2023-07-24T12:47:29;6.53;;;2.92;;
43519;SDS011;46848;51.980;5.918;2023-07-24T12:49:55;7.53;;;4.00;;
43519;SDS011;46848;51.980;5.918;2023-07-24T12:52:21;6.45;;;4.10;;
43519;SDS011;46848;51.980;5.918;2023-07-24T12:54:47;7.30;;;3.65;;
43519;SDS011;46848;51.980;5.918;2023-07-24T12:57:12;5.93;;;3.78;;
43519;SDS011;46848;51.980;5.918;2023-07-24T12:59:38;8.43;;;3.10;;
43519;SDS011;46848;51.980;5.918;2023-07-24T13:02:03;7.50;;;3.60;;
43519;SDS011;46848;51.980;5.918;2023-07-24T13:04:29;6.65;;;3.20;;
43519;SDS011;46848;51.980;5.918;2023-07-24T13:06:55;8.18;;;3.30;;
43519;SDS011;46848;51.980;5.918;2023-07-24T13:09:20;8.38;;;3.65;;
43519;SDS011;46848;51.980;5.918;2023-07-24T13:11:47;5.28;;;2.85;;
43519;SDS011;46848;51.980;5.918;2023-07-24T13:14:15;4.40;;;2.60;;
43519;SDS011;46848;51.980;5.918;2023-07-24T13:16:41;4.18;;;2.33;;
43519;SDS011;46848;51.980;5.918;2023-07-24T13:19:07;7.00;;;2.33;;
43519;SDS011;46848;51.980;5.918;2023-07-24T13:21:32;4.00;;;2.35;;
43519;SDS011;46848;51.980;5.918;2023-07-24T13:23:58;4.43;;;1.95;;
43519;SDS011;46848;51.980;5.918;2023-07-24T13:26:23;5.13;;;2.22;;
43519;SDS011;46848;51.980;5.918;2023-07-24T13:28:49;3.75;;;2.20;;
43519;SDS011;46848;51.980;5.918;2023-07-24T13:31:17;4.38;;;2.50;;
43519;SDS011;46848;51.980;5.918;2023-07-24T13:33:44;4.20;;;2.30;;
43519;SDS011;46848;51.980;5.918;2023-07-24T13:36:09;5.10;;;2.22;;
43519;SDS011;46848;51.980;5.918;2023-07-24T13:38:35;3.45;;;2.13;;
43519;SDS011;46848;51.980;5.918;2023-07-24T13:41:01;3.78;;;1.70;;
43519;SDS011;46848;51.980;5.918;2023-07-24T13:43:27;4.40;;;2.13;;
43519;SDS011;46848;51.980;5.918;2023-07-24T13:45:54;3.88;;;2.03;;
43519;SDS011;46848;51.980;5.918;2023-07-24T13:48:20;4.32;;;2.10;;
43519;SDS011;46848;51.980;5.918;2023-07-24T13:50:45;3.28;;;1.83;;
43519;SDS011;46848;51.980;5.918;2023-07-24T13:53:11;5.10;;;2.58;;
43519;SDS011;46848;51.980;5.918;2023-07-24T13:55:37;4.10;;;2.33;;
43519;SDS011;46848;51.980;5.918;2023-07-24T13:58:03;4.55;;;2.50;;
43519;SDS011;46848;51.980;5.918;2023-07-24T14:00:28;3.95;;;2.20;;
43519;SDS011;46848;51.980;5.918;2023-07-24T14:02:54;5.35;;;2.78;;
43519;SDS011;46848;51.980;5.918;2023-07-24T14:05:19;3.85;;;2.33;;
43519;SDS011;46848;51.980;5.918;2023-07-24T14:07:45;4.60;;;2.67;;
43519;SDS011;46848;51.980;5.918;2023-07-24T14:10:11;4.65;;;3.10;;
43519;SDS011;46848;51.980;5.918;2023-07-24T14:12:36;4.63;;;2.40;;
43519;SDS011;46848;51.980;5.918;2023-07-24T14:15:02;4.00;;;2.40;;
43519;SDS011;46848;51.980;5.918;2023-07-24T14:17:28;4.55;;;2.50;;
43519;SDS011;46848;51.980;5.918;2023-07-24T14:19:54;6.18;;;2.40;;
43519;SDS011;46848;51.980;5.918;2023-07-24T14:22:19;4.18;;;2.45;;
43519;SDS011;46848;51.980;5.918;2023-07-24T14:24:45;4.32;;;2.10;;
43519;SDS011;46848;51.980;5.918;2023-07-24T14:27:11;5.22;;;2.63;;
43519;SDS011;46848;51.980;5.918;2023-07-24T14:29:38;5.55;;;3.00;;
43519;SDS011;46848;51.980;5.918;2023-07-24T14:32:03;5.03;;;2.92;;
43519;SDS011;46848;51.980;5.918;2023-07-24T14:34:30;6.32;;;3.70;;
43519;SDS011;46848;51.980;5.918;2023-07-24T14:36:55;7.50;;;3.70;;
43519;SDS011;46848;51.980;5.918;2023-07-24T14:39:21;7.88;;;4.20;;
43519;SDS011;46848;51.980;5.918;2023-07-24T14:41:46;8.15;;;4.05;;
43519;SDS011;46848;51.980;5.918;2023-07-24T14:44:12;7.30;;;4.13;;
43519;SDS011;46848;51.980;5.918;2023-07-24T14:46:37;6.75;;;4.00;;
43519;SDS011;46848;51.980;5.918;2023-07-24T14:49:03;6.53;;;3.58;;
43519;SDS011;46848;51.980;5.918;2023-07-24T14:51:29;8.32;;;3.95;;